Time;durP1;ratioP1;P1;durP2;ratioP2;P2;SDS_P1;SDS_P2;PMS_P1;PMS_P2;Temp;Humidity;BMP_temperature;BMP_pressure;BME280_temperature;BME280_humidity;BME280_pressure;Samples;Min_cycle;Max_cycle;Signal;HPM_P1;HPM_P2
2021/06/27 00:01:43;;;;;;;10.53;4.00;;;;;;;23.82;64.15;101136.31;5051148;28;20181;-66
2021/06/27 00:04:13;;;;;;;7.83;3.23;;;;;;;23.76;64.47;101127.03;5050983;28;20542;-66
2021/06/27 00:06:39;;;;;;;12.13;4.07;;;;;;;23.58;64.25;101092.75;5050409;28;20229;-66
2021/06/27 00:09:04;;;;;;;11.47;3.87;;;;;;;23.37;64.75;101099.91;5049769;28;20251;-66
2021/06/27 00:11:30;;;;;;;11.37;3.87;;;;;;;23.63;64.69;101114.63;5033860;28;20180;-66
2021/06/27 00:13:55;;;;;;;12.50;4.27;;;;;;;23.63;64.49;101117.47;5051354;28;20173;-66
2021/06/27 00:16:21;;;;;;;8.70;3.80;;;;;;;23.48;64.08;101085.78;5051435;28;20179;-66
2021/06/27 00:18:47;;;;;;;8.67;3.80;;;;;;;23.70;64.75;101123.41;5032849;28;20636;-66
2021/06/27 00:21:13;;;;;;;8.63;3.67;;;;;;;23.43;64.69;101075.25;5051425;28;20176;-66
2021/06/27 00:23:40;;;;;;;9.70;4.20;;;;;;;23.51;64.78;101104.59;5050148;28;20172;-66
2021/06/27 00:26:07;;;;;;;17.40;4.47;;;;;;;23.62;64.56;101115.94;5033548;28;20177;-66
2021/06/27 00:28:32;;;;;;;11.73;4.00;;;;;;;23.58;65.05;101113.34;5049752;28;20172;-66
2021/06/27 00:30:59;;;;;;;14.63;4.20;;;;;;;23.28;64.79;101075.44;5050809;28;20653;-66
2021/06/27 00:33:25;;;;;;;8.17;3.93;;;;;;;23.25;63.98;101079.31;5033774;28;20176;-66
2021/06/27 00:35:51;;;;;;;10.63;3.70;;;;;;;23.32;63.79;101092.97;5049854;28;20277;-66
2021/06/27 00:38:16;;;;;;;10.50;4.07;;;;;;;;;;5016475;28;20208;-66
2021/06/27 00:40:41;;;;;;;10.33;3.90;;;;;;;23.45;63.61;101127.22;5049989;28;20168;-67
2021/06/27 00:43:07;;;;;;;6.93;4.10;;;;;;;23.29;63.25;101082.66;5049327;28;20353;-66
2021/06/27 00:45:33;;;;;;;8.13;3.43;;;;;;;23.22;63.84;101094.47;5016749;28;20180;-66
2021/06/27 00:47:58;;;;;;;11.73;3.90;;;;;;;23.49;63.73;101130.53;5049114;28;20177;-66
2021/06/27 00:50:31;;;;;;;10.33;3.83;;;;;;;23.53;64.04;101133.91;5033227;28;20168;-66
2021/06/27 00:52:57;;;;;;;13.80;3.90;;;;;;;23.45;63.82;101144.19;5050777;28;20183;-66
2021/06/27 00:55:22;;;;;;;11.87;3.80;;;;;;;23.52;63.55;101135.19;5049760;28;20665;-66
2021/06/27 00:57:50;;;;;;;9.17;3.77;;;;;;;23.52;63.96;101123.88;5049130;28;20610;-66
2021/06/27 01:00:17;;;;;;;11.17;3.90;;;;;;;23.33;63.78;101094.50;5050745;28;20768;-66
2021/06/27 01:02:44;;;;;;;10.33;3.83;;;;;;;23.36;63.50;101098.38;5033412;28;20263;-66
2021/06/27 01:05:11;;;;;;;8.93;3.27;;;;;;;23.38;63.81;101101.47;5016422;28;20169;-66
2021/06/27 01:07:37;;;;;;;9.20;3.67;;;;;;;;;;5049219;28;20188;-66
2021/06/27 01:10:03;;;;;;;6.10;3.33;;;;;;;23.45;63.13;101110.25;5048871;28;20191;-67
2021/06/27 01:12:28;;;;;;;6.53;3.60;;;;;;;22.87;62.96;101042.38;5050637;28;20172;-66
2021/06/27 01:14:54;;;;;;;9.20;3.53;;;;;;;23.37;63.17;101116.88;5050043;28;20176;-66
2021/06/27 01:17:20;;;;;;;7.90;3.40;;;;;;;23.17;63.49;101080.25;5050664;28;20686;-66
2021/06/27 01:19:46;;;;;;;10.07;4.10;;;;;;;23.39;63.80;101119.97;5032105;28;20236;-66
2021/06/27 01:22:11;;;;;;;11.40;3.73;;;;;;;23.15;63.24;101091.31;5050285;28;20206;-66
2021/06/27 01:24:37;;;;;;;10.47;3.70;;;;;;;23.33;62.86;101124.84;5032870;28;20172;-67
2021/06/27 01:27:03;;;;;;;8.20;3.27;;;;;;;23.25;62.49;101112.47;5050380;28;20187;-66
2021/06/27 01:29:28;;;;;;;7.80;3.60;;;;;;;23.07;62.62;101093.84;5050162;28;20168;-66
2021/06/27 01:31:54;;;;;;;10.27;3.53;;;;;;;23.19;62.61;101117.31;5032402;28;20285;-66
2021/06/27 01:34:19;;;;;;;8.53;3.50;;;;;;;23.13;61.69;101094.66;5049231;28;20188;-66
2021/06/27 01:36:45;;;;;;;6.87;3.17;;;;;;;22.84;62.09;101049.81;5032796;28;20183;-66
2021/06/27 01:39:10;;;;;;;7.43;3.60;;;;;;;23.14;61.91;101113.16;5048573;28;20199;-66
2021/06/27 01:41:36;;;;;;;11.83;4.00;;;;;;;23.07;62.04;101110.03;5049126;28;20188;-66
2021/06/27 01:44:01;;;;;;;9.70;3.40;;;;;;;23.09;61.80;101099.75;5048588;28;20184;-66
2021/06/27 01:46:27;;;;;;;7.40;3.30;;;;;;;23.08;62.12;101095.41;5049025;28;20618;-66
2021/06/27 01:48:52;;;;;;;9.33;3.60;;;;;;;23.05;62.10;101104.91;5048524;28;20165;-66
2021/06/27 01:51:18;;;;;;;10.17;3.60;;;;;;;22.80;62.89;101102.97;5049304;28;20176;-66
2021/06/27 01:53:43;;;;;;;9.40;3.47;;;;;;;22.86;62.62;101103.78;5032503;28;20558;-66
2021/06/27 01:56:09;;;;;;;9.13;3.70;;;;;;;22.78;62.63;101108.34;5048565;28;20184;-66
2021/06/27 01:58:46;;;;;;;9.50;3.80;;;;;;;22.76;62.90;101107.28;5048783;28;20279;-66
2021/06/27 02:01:15;;;;;;;9.93;3.73;;;;;;;22.73;62.88;101103.44;5033381;28;20172;-66
2021/06/27 02:03:41;;;;;;;6.57;3.30;;;;;;;22.52;63.08;101078.66;5048938;28;20181;-66
2021/06/27 02:06:06;;;;;;;10.27;3.70;;;;;;;22.67;63.21;101113.91;5032134;28;20179;-66
2021/06/27 02:08:33;;;;;;;10.83;4.10;;;;;;;22.52;63.57;101107.66;5049468;28;20164;-66
2021/06/27 02:10:59;;;;;;;6.87;3.70;;;;;;;22.49;64.07;101117.16;5032572;28;20552;-66
2021/06/27 02:13:25;;;;;;;7.70;3.57;;;;;;;22.54;64.03;101124.88;5050044;28;20180;-66
2021/06/27 02:15:50;;;;;;;10.73;3.67;;;;;;;22.49;64.32;101119.97;5049853;28;20188;-66
2021/06/27 02:18:35;;;;;;;9.53;3.43;;;;;;;22.30;63.91;101084.88;5049356;28;20273;-66
2021/06/27 02:21:14;;;;;;;11.13;3.70;;;;;;;22.22;64.50;101077.38;5048774;28;20664;-66
2021/06/27 02:23:39;;;;;;;10.63;3.53;;;;;;;22.16;64.59;101082.22;5032358;28;20739;-66
2021/06/27 02:26:05;;;;;;;10.17;3.73;;;;;;;22.33;64.81;101120.59;5016721;28;20180;-66
2021/06/27 02:28:30;;;;;;;10.50;3.70;;;;;;;22.20;64.72;101097.63;5019207;28;20168;-66
2021/06/27 02:30:56;;;;;;;10.30;3.63;;;;;;;22.43;64.60;101124.00;5035435;28;20195;-66
2021/06/27 02:33:22;;;;;;;12.40;3.40;;;;;;;22.43;64.72;101124.78;5053523;28;20176;-66
2021/06/27 02:35:48;;;;;;;10.23;3.27;;;;;;;22.46;64.67;101125.88;5052232;28;20183;-67
2021/06/27 02:38:13;;;;;;;10.90;3.40;;;;;;;22.29;64.47;101093.84;5051408;28;20191;-66
2021/06/27 02:40:41;;;;;;;8.97;3.23;;;;;;;22.25;65.32;101084.81;5052157;28;20183;-66
2021/06/27 02:43:07;;;;;;;8.93;3.70;;;;;;;22.37;65.50;101126.75;5051857;28;20243;-66
2021/06/27 02:45:33;;;;;;;11.07;3.53;;;;;;;22.42;64.46;101140.16;5018957;28;20219;-66
2021/06/27 02:47:58;;;;;;;8.47;3.80;;;;;;;22.48;64.27;101140.25;5034763;28;20181;-66
2021/06/27 02:50:24;;;;;;;8.57;3.60;;;;;;;22.18;64.27;101097.38;5053251;28;20234;-66
2021/06/27 02:52:49;;;;;;;14.73;3.47;;;;;;;22.50;64.41;101130.00;5035282;28;20190;-66
2021/06/27 02:55:15;;;;;;;8.97;3.27;;;;;;;22.52;64.09;101129.50;5051682;28;20187;-66
2021/06/27 02:57:41;;;;;;;7.90;3.43;;;;;;;22.49;63.64;101119.97;5052925;28;20273;-66
2021/06/27 03:00:09;;;;;;;10.93;3.93;;;;;;;22.35;64.63;101105.94;5035000;28;20518;-66
2021/06/27 03:02:34;;;;;;;9.43;3.33;;;;;;;22.54;63.68;101130.53;5051979;28;20271;-66
2021/06/27 03:05:00;;;;;;;9.87;3.20;;;;;;;22.61;62.77;101129.31;5051707;28;20625;-66
2021/06/27 03:07:25;;;;;;;7.37;2.93;;;;;;;22.63;62.97;101135.22;5052574;28;20241;-66
2021/06/27 03:09:51;;;;;;;8.40;3.50;;;;;;;22.60;62.73;101142.66;5052104;28;20552;-66
2021/06/27 03:12:16;;;;;;;8.97;3.43;;;;;;;22.52;62.59;101123.84;5052779;28;20179;-67
2021/06/27 03:14:42;;;;;;;9.23;3.53;;;;;;;22.65;62.47;101135.47;5034923;28;20738;-66
2021/06/27 03:17:07;;;;;;;6.90;3.40;;;;;;;22.62;62.44;101122.38;5051420;28;20176;-66
2021/06/27 03:19:34;;;;;;;10.37;3.77;;;;;;;22.49;63.00;101099.41;5034035;28;20232;-66
2021/06/27 03:21:59;;;;;;;7.37;3.23;;;;;;;22.64;62.95;101134.72;5034507;28;20207;-66
2021/06/27 03:24:25;;;;;;;7.60;3.30;;;;;;;22.70;63.28;101135.53;5051410;28;20203;-66
2021/06/27 03:26:50;;;;;;;8.80;3.50;;;;;;;22.73;63.76;101139.41;5051077;28;20180;-66
2021/06/27 03:29:15;;;;;;;7.67;3.20;;;;;;;22.71;63.84;101130.63;5050908;28;20168;-66
2021/06/27 03:31:41;;;;;;;9.30;3.10;;;;;;;22.56;63.53;101139.28;5052368;28;20386;-66
2021/06/27 03:34:06;;;;;;;7.90;3.20;;;;;;;22.57;63.16;101140.06;5034328;28;20176;-66
2021/06/27 03:36:32;;;;;;;11.53;3.57;;;;;;;22.38;63.17;101111.41;5052317;28;20169;-66
2021/06/27 03:39:08;;;;;;;7.30;3.00;;;;;;;22.65;62.85;101141.13;5033823;28;20697;-66
2021/06/27 03:41:39;;;;;;;7.87;3.00;;;;;;;22.33;62.85;101103.66;5052290;28;20161;-66
2021/06/27 03:44:05;;;;;;;7.20;3.20;;;;;;;22.67;62.84;101141.41;5035002;28;20630;-66
2021/06/27 03:46:30;;;;;;;10.33;3.43;;;;;;;22.54;62.93;101146.69;5052131;28;20176;-66
2021/06/27 03:48:56;;;;;;;8.50;3.33;;;;;;;22.39;62.50;101123.44;5050413;28;20601;-66
2021/06/27 03:51:21;;;;;;;10.50;3.27;;;;;;;22.66;62.13;101145.50;5050936;28;20169;-66
2021/06/27 03:53:47;;;;;;;7.07;3.17;;;;;;;22.72;62.08;101141.44;5050819;28;20164;-66
2021/06/27 03:56:12;;;;;;;7.10;3.17;;;;;;;22.86;62.00;101151.03;5050173;28;20191;-66
2021/06/27 03:58:38;;;;;;;7.60;3.17;;;;;;;22.87;61.71;101159.00;5050270;28;20215;-66
2021/06/27 04:01:03;;;;;;;8.27;3.37;;;;;;;22.84;61.94;101160.03;5051792;28;20179;-66
2021/06/27 04:03:29;;;;;;;6.83;3.27;;;;;;;22.91;61.84;101162.38;5033927;28;20191;-66
2021/06/27 04:05:54;;;;;;;8.03;3.30;;;;;;;23.03;61.59;101166.81;5050458;28;20559;-66
2021/06/27 04:08:20;;;;;;;4.77;3.17;;;;;;;23.13;61.42;101161.75;5049505;28;20704;-66
2021/06/27 04:10:45;;;;;;;10.10;3.27;;;;;;;23.11;61.32;101164.28;5033884;28;20180;-66
2021/06/27 04:13:10;;;;;;;8.73;3.50;;;;;;;23.12;61.33;101163.78;5051533;28;20554;-66
2021/06/27 04:15:36;;;;;;;6.97;3.43;;;;;;;23.22;61.46;101164.38;5051611;28;20173;-66
2021/06/27 04:18:02;;;;;;;5.33;3.27;;;;;;;23.33;61.77;101167.28;5050394;28;20718;-66
2021/06/27 04:23:11;;;;;;;8.70;3.47;;;;;;;23.46;60.79;101168.34;5051217;28;20187;-66
2021/06/27 04:25:37;;;;;;;8.77;3.27;;;;;;;23.09;60.21;101128.03;5050204;28;20172;-66
2021/06/27 04:28:03;;;;;;;8.27;3.13;;;;;;;23.50;60.49;101163.22;5049691;28;20661;-66
2021/06/27 04:30:28;;;;;;;5.43;3.47;;;;;;;23.51;60.68;101161.16;5051327;28;20175;-66
2021/06/27 04:32:54;;;;;;;7.13;3.37;;;;;;;23.66;60.01;101168.16;5051060;28;20234;-66
2021/06/27 04:35:19;;;;;;;9.37;3.90;;;;;;;23.75;60.37;101165.09;5051234;28;20184;-66
2021/06/27 04:37:45;;;;;;;8.50;3.73;;;;;;;23.71;60.59;101141.16;5049732;28;20541;-66
2021/06/27 04:40:10;;;;;;;6.77;3.50;;;;;;;24.04;60.39;101170.34;5049287;28;20200;-66
2021/06/27 04:42:36;;;;;;;7.93;3.73;;;;;;;23.98;61.42;101166.72;5049646;28;20188;-66
2021/06/27 04:45:03;;;;;;;6.70;3.70;;;;;;;24.01;60.03;101174.19;5050019;28;20323;-66
2021/06/27 04:47:28;;;;;;;5.60;3.47;;;;;;;24.11;60.12;101171.91;5049799;28;20207;-66
2021/06/27 04:49:53;;;;;;;5.87;3.70;;;;;;;24.07;60.22;101165.72;5050013;28;20194;-66
2021/06/27 04:52:19;;;;;;;5.60;3.33;;;;;;;24.05;59.35;101151.31;5016649;28;20180;-66
2021/06/27 04:54:44;;;;;;;7.73;3.60;;;;;;;24.23;59.60;101162.13;5049520;28;20195;-66
2021/06/27 04:57:10;;;;;;;7.07;3.67;;;;;;;24.19;59.61;101144.59;5032910;28;20184;-66
2021/06/27 04:59:35;;;;;;;6.60;3.70;;;;;;;24.35;59.80;101169.34;5032435;28;20191;-67
2021/06/27 05:02:01;;;;;;;7.60;3.90;;;;;;;24.49;59.59;101162.63;5050569;28;20237;-66
2021/06/27 05:04:26;;;;;;;6.13;3.60;;;;;;;24.45;58.37;101150.78;5049679;28;20180;-66
2021/06/27 05:06:52;;;;;;;8.13;3.70;;;;;;;24.56;58.62;101165.72;5032647;28;20180;-66
2021/06/27 05:09:17;;;;;;;4.93;3.40;;;;;;;24.38;57.71;101126.59;5050094;28;20184;-66
2021/06/27 05:11:43;;;;;;;8.10;3.67;;;;;;;24.70;56.94;101167.56;5016442;28;20342;-67
2021/06/27 05:14:08;;;;;;;4.10;3.13;;;;;;;24.71;56.46;101174.78;5050663;28;20675;-66
2021/06/27 05:16:34;;;;;;;6.93;3.20;;;;;;;24.53;57.82;101137.66;5050589;28;20172;-66
2021/06/27 05:18:59;;;;;;;5.07;3.23;;;;;;;24.92;57.45;101178.09;5043122;28;20648;-66
2021/06/27 05:21:25;;;;;;;8.57;3.10;;;;;;;24.92;57.35;101181.69;5044746;28;20176;-66
2021/06/27 05:23:50;;;;;;;7.10;3.30;;;;;;;25.02;57.57;101185.78;5047377;28;20668;-66
2021/06/27 05:26:16;;;;;;;6.97;3.60;;;;;;;25.09;58.04;101181.66;5047883;28;20176;-66
2021/06/27 05:28:41;;;;;;;8.90;3.60;;;;;;;25.15;59.16;101182.41;5047088;28;20208;-66
2021/06/27 05:31:07;;;;;;;9.07;3.37;;;;;;;25.20;59.02;101179.59;5040574;28;20181;-67
2021/06/27 05:33:32;;;;;;;6.97;3.30;;;;;;;25.31;57.77;101185.25;5028145;28;20188;-66
2021/06/27 05:35:58;;;;;;;6.93;3.10;;;;;;;25.38;56.47;101189.63;5020035;28;20628;-66
2021/06/27 05:38:25;;;;;;;7.30;3.43;;;;;;;25.40;55.80;101201.19;5038618;28;20265;-66
2021/06/27 05:40:50;;;;;;;4.87;3.33;;;;;;;25.44;54.94;101196.78;5046619;28;20622;-66
2021/06/27 05:43:16;;;;;;;4.53;2.83;;;;;;;25.27;54.83;101150.69;5048550;28;20187;-66
2021/06/27 05:45:41;;;;;;;7.17;3.33;;;;;;;25.64;55.82;101193.63;5048370;28;20234;-66
2021/06/27 05:48:07;;;;;;;9.60;3.60;;;;;;;25.38;55.11;101152.72;5048906;28;20180;-66
2021/06/27 05:50:33;;;;;;;4.83;3.20;;;;;;;25.91;55.60;101200.44;5030991;28;20281;-67
2021/06/27 05:52:58;;;;;;;5.97;3.40;;;;;;;25.92;55.37;101196.34;5049126;28;20168;-66
2021/06/27 05:55:24;;;;;;;7.60;3.43;;;;;;;25.89;54.84;101186.03;5049831;28;20180;-66
2021/06/27 05:57:49;;;;;;;8.63;3.30;;;;;;;25.93;55.27;101190.16;5047591;28;20818;-66
2021/06/27 06:00:15;;;;;;;6.83;3.40;;;;;;;25.82;53.61;101155.31;5048642;28;20226;-67
2021/06/27 06:02:40;;;;;;;8.80;3.43;;;;;;;26.18;53.24;101193.84;5049161;28;20578;-67
2021/06/27 06:05:06;;;;;;;5.40;2.90;;;;;;;26.23;51.86;101193.81;5050951;28;20184;-66
2021/06/27 06:07:32;;;;;;;7.70;3.00;;;;;;;26.25;50.64;101181.94;5051319;28;20202;-67
2021/06/27 06:09:57;;;;;;;7.00;3.40;;;;;;;26.44;50.75;101197.78;5034820;28;20274;-67
2021/06/27 06:12:23;;;;;;;5.87;3.33;;;;;;;26.43;50.62;101196.25;5051691;28;20161;-66
2021/06/27 06:14:48;;;;;;;5.93;3.03;;;;;;;26.49;50.00;101193.34;5051784;28;20172;-66
2021/06/27 06:17:14;;;;;;;9.37;3.80;;;;;;;26.55;50.17;101203.41;5052566;28;20667;-66
2021/06/27 06:19:40;;;;;;;6.03;3.03;;;;;;;26.61;50.24;101195.59;5052535;28;20301;-66
2021/06/27 06:22:06;;;;;;;5.40;2.70;;;;;;;26.51;49.76;101177.31;5052544;28;20181;-67
2021/06/27 06:24:32;;;;;;;5.00;3.23;;;;;;;26.74;50.12;101203.50;5035082;28;20649;-66
2021/06/27 06:26:57;;;;;;;6.47;3.23;;;;;;;26.83;50.02;101200.34;5051970;28;20172;-66
2021/06/27 06:29:22;;;;;;;6.47;3.40;;;;;;;26.85;50.04;101201.34;5052893;28;20179;-66
2021/06/27 06:31:48;;;;;;;6.67;2.93;;;;;;;26.83;50.24;101194.66;5051015;28;20184;-66
2021/06/27 06:34:14;;;;;;;9.83;3.30;;;;;;;26.88;51.03;101200.28;5052943;28;20638;-67
2021/06/27 06:36:39;;;;;;;4.37;2.90;;;;;;;27.00;51.61;101200.94;5053192;28;20165;-66
2021/06/27 06:39:05;;;;;;;5.40;3.00;;;;;;;27.13;49.53;101195.38;5052185;28;20299;-66
2021/06/27 06:41:30;;;;;;;8.13;3.10;;;;;;;27.19;50.63;101196.09;5051430;28;20176;-66
2021/06/27 06:43:56;;;;;;;7.00;3.33;;;;;;;27.15;49.85;101187.84;5051378;28;20180;-66
2021/06/27 06:46:21;;;;;;;8.83;3.47;;;;;;;27.26;49.68;101186.97;5051161;28;20677;-66
2021/06/27 06:48:47;;;;;;;6.60;3.40;;;;;;;27.29;49.70;101192.38;5018447;28;20379;-67
2021/06/27 06:51:12;;;;;;;8.57;3.57;;;;;;;27.15;49.74;101167.16;5051464;28;20562;-66
2021/06/27 06:53:38;;;;;;;5.93;3.20;;;;;;;27.43;49.24;101188.31;5034094;28;20565;-67
2021/06/27 06:56:03;;;;;;;7.67;3.20;;;;;;;27.30;49.25;101167.53;5051795;28;20442;-66
2021/06/27 06:58:29;;;;;;;5.77;3.50;;;;;;;27.42;49.38;101195.31;5051818;28;20226;-66
2021/06/27 07:00:58;;;;;;;7.47;3.40;;;;;;;27.51;49.50;101197.81;5051573;28;20192;-66
2021/06/27 07:03:24;;;;;;;6.03;3.63;;;;;;;27.48;50.35;101186.72;5052468;28;20234;-67
2021/06/27 07:05:50;;;;;;;5.53;3.27;;;;;;;27.74;50.52;101192.59;5050389;28;20253;-66
2021/06/27 07:08:15;;;;;;;3.57;2.77;;;;;;;27.76;45.36;101199.28;5052317;28;20196;-66
2021/06/27 07:10:41;;;;;;;7.23;3.27;;;;;;;27.71;46.90;101177.34;5050893;28;20237;-66
2021/06/27 07:13:06;;;;;;;6.17;3.10;;;;;;;27.94;46.33;101207.09;5049727;28;20729;-66
2021/06/27 07:15:32;;;;;;;4.55;3.00;;;;;;;27.96;45.73;101209.41;5050855;28;20176;-66
2021/06/27 07:17:57;;;;;;;7.63;3.30;;;;;;;28.06;46.61;101211.34;5051386;28;20256;-67
2021/06/27 07:20:23;;;;;;;6.97;2.97;;;;;;;28.14;44.63;101211.50;5051944;28;20216;-67
2021/06/27 07:22:48;;;;;;;6.67;2.77;;;;;;;28.03;42.67;101195.31;5050127;28;20594;-67
2021/06/27 07:25:14;;;;;;;4.97;2.93;;;;;;;28.21;44.09;101219.41;5033486;28;20179;-66
2021/06/27 07:27:39;;;;;;;4.40;3.03;;;;;;;28.25;43.67;101208.47;5049930;28;20187;-67
2021/06/27 07:30:06;;;;;;;5.50;3.00;;;;;;;28.30;43.11;101190.50;5050293;28;20164;-67
2021/06/27 07:32:31;;;;;;;6.90;2.90;;;;;;;28.51;42.53;101205.75;5032217;28;20187;-67
2021/06/27 07:34:57;;;;;;;7.60;3.03;;;;;;;28.58;42.62;101208.72;5050181;28;20175;-67
2021/06/27 07:37:23;;;;;;;4.13;2.80;;;;;;;28.75;42.55;101214.13;5048473;28;20176;-67
2021/06/27 07:39:48;;;;;;;5.57;3.10;;;;;;;28.66;42.09;101186.81;5032700;28;20593;-67
2021/06/27 07:42:13;;;;;;;3.73;2.83;;;;;;;28.55;42.61;101166.28;5033064;28;20176;-67
2021/06/27 07:44:39;;;;;;;3.63;2.60;;;;;;;28.85;41.32;101209.56;5050746;28;20723;-67
2021/06/27 07:47:04;;;;;;;3.93;2.70;;;;;;;28.59;39.85;101167.50;5052075;28;20176;-66
2021/06/27 07:49:30;;;;;;;2.87;2.33;;;;;;;28.51;41.74;101145.88;5050997;28;20177;-67
2021/06/27 07:51:55;;;;;;;6.87;3.17;;;;;;;28.90;40.01;101203.75;5050313;28;20176;-67
2021/06/27 07:54:21;;;;;;;4.80;3.00;;;;;;;29.08;41.77;101205.03;5050715;28;20180;-66
2021/06/27 07:56:46;;;;;;;4.93;2.73;;;;;;;29.06;40.76;101210.50;5051894;28;20180;-67
2021/06/27 07:59:14;;;;;;;6.35;2.70;;;;;;;28.78;39.39;101158.84;5051659;28;20195;-67
2021/06/27 08:01:40;;;;;;;3.87;2.80;;;;;;;28.94;40.04;101177.75;5034013;28;20177;-67
2021/06/27 08:04:05;;;;;;;6.20;2.60;;;;;;;29.11;39.09;101223.88;5050395;28;20172;-66
2021/06/27 08:06:31;;;;;;;4.60;3.03;;;;;;;29.14;39.07;101211.38;5051514;28;20266;-66
2021/06/27 08:08:56;;;;;;;6.80;2.67;;;;;;;29.15;37.03;101204.34;5051364;28;20727;-66
2021/06/27 08:11:22;;;;;;;5.10;2.80;;;;;;;29.35;36.75;101227.34;5033665;28;20172;-67
2021/06/27 08:13:47;;;;;;;4.47;2.85;;;;;;;29.32;37.05;101213.38;5050493;28;20177;-67
2021/06/27 08:16:13;;;;;;;3.83;2.70;;;;;;;29.33;37.87;101221.38;5050035;28;20184;-67
2021/06/27 08:18:38;;;;;;;6.47;3.00;;;;;;;29.41;38.21;101221.50;5055272;28;20269;-67
2021/06/27 08:21:04;;;;;;;4.80;3.03;;;;;;;29.49;38.31;101220.28;5051001;28;20701;-67
2021/06/27 08:23:29;;;;;;;4.68;2.90;;;;;;;29.58;39.22;101217.00;5048787;28;20735;-67
2021/06/27 08:25:55;;;;;;;4.93;3.05;;;;;;;29.61;38.75;101207.34;5051170;28;20187;-67
2021/06/27 08:28:20;;;;;;;3.53;2.83;;;;;;;29.74;37.41;101218.75;5049809;28;20184;-67
2021/06/27 08:30:46;;;;;;;6.80;2.95;;;;;;;29.71;37.29;101219.09;5048651;28;20669;-67
2021/06/27 08:33:11;;;;;;;6.33;3.10;;;;;;;29.82;38.63;101207.41;5049061;28;20180;-67
2021/06/27 08:35:37;;;;;;;5.43;2.97;;;;;;;30.02;39.05;101209.56;5051077;28;20184;-66
2021/06/27 08:38:02;;;;;;;5.38;3.20;;;;;;;30.12;37.41;101207.81;5049102;28;20264;-67
2021/06/27 08:40:28;;;;;;;5.88;3.10;;;;;;;30.09;37.49;101198.22;5048472;28;20778;-67
2021/06/27 08:42:54;;;;;;;6.05;3.25;;;;;;;30.07;37.71;101198.03;5050331;28;20184;-67
2021/06/27 08:45:19;;;;;;;5.07;2.90;;;;;;;29.93;38.23;101196.50;5049860;28;20661;-67
2021/06/27 08:47:46;;;;;;;4.28;2.80;;;;;;;29.76;38.25;101176.13;5051012;28;20180;-67
2021/06/27 08:50:13;;;;;;;3.60;3.00;;;;;;;29.85;36.64;101187.09;5033194;28;20191;-67
2021/06/27 08:52:40;;;;;;;5.95;2.75;;;;;;;30.08;36.81;101202.41;5033075;28;20183;-67
2021/06/27 08:55:06;;;;;;;5.28;2.80;;;;;;;30.17;36.34;101204.84;5032909;28;20620;-67
2021/06/27 08:57:50;;;;;;;4.65;2.70;;;;;;;30.16;34.93;101196.81;5050771;28;20195;-67
2021/06/27 09:00:16;;;;;;;4.90;2.92;;;;;;;30.19;35.54;101198.56;5049740;28;20196;-67
2021/06/27 09:02:41;;;;;;;6.13;3.00;;;;;;;30.16;35.39;101208.25;5049157;28;20673;-67
2021/06/27 09:05:08;;;;;;;3.88;2.78;;;;;;;30.26;36.44;101215.03;5016280;28;20177;-66
2021/06/27 09:07:35;;;;;;;3.78;2.80;;;;;;;30.03;35.60;101174.72;5050541;28;20245;-67
2021/06/27 09:10:07;;;;;;;5.97;2.58;;;;;;;30.41;35.64;101218.03;5032671;28;20603;-67
2021/06/27 09:12:50;;;;;;;3.70;2.50;;;;;;;30.30;35.76;101206.88;5050251;28;20266;-67
2021/06/27 09:15:44;;;;;;;5.85;2.55;;;;;;;30.27;34.45;101210.84;5033083;28;20180;-66
2021/06/27 09:18:16;;;;;;;3.40;2.42;;;;;;;30.37;34.43;101204.09;5032512;28;20242;-67
2021/06/27 09:20:50;;;;;;;4.60;2.45;;;;;;;30.31;34.13;101186.28;5050207;28;20731;-67
2021/06/27 09:23:17;;;;;;;4.45;2.70;;;;;;;30.43;35.61;101199.00;5032958;28;20178;-67
2021/06/27 09:25:43;;;;;;;8.80;2.60;;;;;;;30.53;34.32;101216.44;5016479;28;20608;-67
2021/06/27 09:28:10;;;;;;;3.58;2.50;;;;;;;30.45;34.58;101192.72;5049499;28;20894;-67
2021/06/27 09:30:41;;;;;;;4.72;2.45;;;;;;;30.41;33.81;101175.91;5048693;28;20171;-67
2021/06/27 09:33:13;;;;;;;4.07;2.60;;;;;;;30.66;36.19;101202.84;5029502;28;20594;-67
2021/06/27 09:36:00;;;;;;;7.57;2.83;;;;;;;30.62;34.20;101202.44;5031681;28;20162;-67
2021/06/27 09:38:35;;;;;;;5.03;2.97;;;;;;;30.79;36.57;101207.75;5034319;28;20626;-67
2021/06/27 09:41:12;;;;;;;4.25;2.92;;;;;;;30.78;35.15;101209.84;5016781;28;20172;-67
2021/06/27 09:43:37;;;;;;;4.55;3.03;;;;;;;30.75;36.01;101196.66;5048323;28;20199;-67
2021/06/27 09:46:12;;;;;;;5.72;2.83;;;;;;;30.54;34.84;101169.34;5054098;28;20628;-67
2021/06/27 09:48:50;;;;;;;5.30;2.28;;;;;;;30.86;35.31;101210.66;5037875;28;20152;-67
2021/06/27 09:51:16;;;;;;;3.85;2.65;;;;;;;30.66;35.47;101167.78;5053988;28;20176;-67
2021/06/27 09:53:41;;;;;;;6.03;2.92;;;;;;;30.62;35.31;101170.97;5036651;28;20180;-67
2021/06/27 09:56:08;;;;;;;5.93;3.10;;;;;;;31.01;36.65;101210.03;5052622;28;20172;-67
2021/06/27 09:58:34;;;;;;;5.00;2.80;;;;;;;30.94;37.13;101170.66;5052891;28;20199;-67
2021/06/27 10:00:59;;;;;;;5.07;2.65;;;;;;;31.19;35.32;101194.69;5035942;28;20176;-67
2021/06/27 10:03:29;;;;;;;4.93;3.00;;;;;;;30.93;35.53;101172.00;5036360;28;20179;-67
2021/06/27 10:06:07;;;;;;;5.78;2.88;;;;;;;30.99;34.92;101181.97;5035997;28;20187;-67
2021/06/27 10:08:32;;;;;;;4.90;2.80;;;;;;;31.48;35.04;101210.56;5052789;28;20651;-67
2021/06/27 10:11:15;;;;;;;6.15;2.88;;;;;;;31.60;34.54;101208.91;5035508;28;20184;-67
2021/06/27 10:13:46;;;;;;;3.70;2.70;;;;;;;31.38;34.77;101192.38;5053971;28;20157;-67
2021/06/27 10:16:16;;;;;;;10.35;2.70;;;;;;;31.48;35.85;101210.56;5052565;28;20190;-67
2021/06/27 10:18:42;;;;;;;4.25;3.28;;;;;;;31.84;35.71;101205.59;5053283;28;20650;-67
2021/06/27 10:21:09;;;;;;;3.67;2.80;;;;;;;31.77;36.13;101178.44;5035528;28;20196;-68
2021/06/27 10:23:34;;;;;;;3.70;2.50;;;;;;;31.34;34.15;101161.22;5052465;28;20184;-67
2021/06/27 10:26:00;;;;;;;6.63;2.60;;;;;;;31.53;35.85;101186.72;5052399;28;20183;-68
2021/06/27 10:28:25;;;;;;;3.63;2.55;;;;;;;31.62;33.14;101218.47;5035852;28;20542;-67
2021/06/27 10:30:51;;;;;;;3.70;2.47;;;;;;;31.56;33.02;101209.25;5035144;28;20184;-67
2021/06/27 10:33:17;;;;;;;4.30;2.70;;;;;;;31.55;33.45;101201.22;5035905;28;20568;-67
2021/06/27 10:35:51;;;;;;;5.03;2.95;;;;;;;31.48;34.85;101159.75;5052316;28;20578;-67
2021/06/27 10:38:26;;;;;;;6.70;2.70;;;;;;;31.74;33.21;101198.88;5035758;28;20171;-67
2021/06/27 10:40:54;;;;;;;4.75;3.00;;;;;;;31.48;31.90;101156.13;5035213;28;20559;-67
2021/06/27 10:43:19;;;;;;;2.95;2.25;;;;;;;31.88;33.26;101189.56;5018831;28;20642;-67
2021/06/27 10:45:52;;;;;;;3.90;2.50;;;;;;;31.98;33.37;101198.41;5052030;28;20180;-67
2021/06/27 10:48:32;;;;;;;4.35;2.60;;;;;;;32.05;32.65;101191.91;5052674;28;20179;-67
2021/06/27 10:50:57;;;;;;;7.65;2.92;;;;;;;32.18;33.49;101195.38;5052756;28;20180;-67
2021/06/27 10:53:23;;;;;;;4.07;2.92;;;;;;;31.65;32.70;101154.31;5052057;28;20180;-67
2021/06/27 10:55:49;;;;;;;6.20;2.65;;;;;;;31.68;33.21;101161.75;5051621;28;20192;-67
2021/06/27 10:58:18;;;;;;;4.63;2.55;;;;;;;31.56;32.08;101126.19;5035313;28;20183;-67
2021/06/27 11:00:56;;;;;;;4.15;2.33;;;;;;;32.12;32.52;101191.16;5051465;28;20204;-67
2021/06/27 11:03:44;;;;;;;3.22;2.28;;;;;;;31.76;32.67;101148.25;5052870;28;20183;-67
2021/06/27 11:06:16;;;;;;;4.95;2.50;;;;;;;32.11;33.15;101193.28;5051564;28;20175;-68
2021/06/27 11:08:48;;;;;;;5.05;2.85;;;;;;;31.98;32.51;101146.81;5052908;28;20176;-67
2021/06/27 11:11:19;;;;;;;4.90;2.53;;;;;;;32.24;31.80;101189.50;5035073;28;20206;-68
2021/06/27 11:14:10;;;;;;;4.03;2.55;;;;;;;32.09;32.42;101184.47;5051611;28;20175;-67
2021/06/27 11:16:54;;;;;;;3.40;2.45;;;;;;;31.96;31.97;101147.38;5032781;28;20184;-68
2021/06/27 11:19:28;;;;;;;4.22;2.25;;;;;;;32.39;30.54;101175.19;5026062;28;20224;-67
2021/06/27 11:22:13;;;;;;;4.07;2.40;;;;;;;32.69;31.94;101175.19;5050875;28;20172;-67
2021/06/27 11:24:39;;;;;;;4.45;2.00;;;;;;;32.54;29.56;101138.66;5050944;28;20196;-68
2021/06/27 11:27:05;;;;;;;3.97;2.40;;;;;;;32.37;32.23;101149.94;5034605;28;20314;-67